Time,TemperatureF,DewpointF,PressureIn,WindDirection,WindDirectionDegrees,WindSpeedMPH,WindSpeedGustMPH,Humidity,HourlyPrecipIn,Conditions,Clouds,dailyrainin,SoftwareType,DateUTC
2013-06-30 00:01:00,67.3,59.8,29.76,NNW,338,0.0,0.0,77,0.00,,---,0.00,VWS V14.01,2013-06-30 05:01:00,
2013-06-30 00:06:00,67.3,59.8,29.76,NW,315,0.0,0.0,77,0.00,,---,0.00,VWS V14.01,2013-06-30 05:06:00,
2013-06-30 00:11:00,67.1,59.7,29.76,NNW,338,0.0,0.0,77,0.00,,---,0.00,VWS V14.01,2013-06-30 05:11:00,
2013-06-30 00:16:00,66.9,59.8,29.76,NNW,338,0.0,0.0,78,0.00,,---,0.00,VWS V14.01,2013-06-30 05:16:00,
2013-06-30 00:21:00,66.7,59.7,29.76,NNE,22,0.0,0.0,78,0.00,,---,0.00,VWS V14.01,2013-06-30 05:21:00,
2013-06-30 00:25:00,66.7,59.7,29.76,NNE,22,0.0,0.0,78,0.00,,---,0.00,VWS V14.01,2013-06-30 05:25:00,
2013-06-30 00:30:00,66.6,59.8,29.76,NNE,22,0.0,0.0,79,0.00,,---,0.00,VWS V14.01,2013-06-30 05:30:00,
2013-06-30 00:35:00,66.4,59.7,29.76,NW,315,0.0,0.0,79,0.00,,---,0.00,VWS V14.01,2013-06-30 05:35:00,
2013-06-30 00:40:00,66.4,60.0,29.76,WNW,292,0.0,0.0,80,0.00,,---,0.00,VWS V14.01,2013-06-30 05:40:00,
2013-06-30 00:45:00,66.2,59.9,29.76,WNW,292,0.0,0.0,80,0.00,,---,0.00,VWS V14.01,2013-06-30 05:45:00,
2013-06-30 00:50:00,66.2,59.9,29.74,WNW,292,0.0,0.0,80,0.00,,---,0.00,VWS V14.01,2013-06-30 05:50:00,
2013-06-30 00:55:00,66.0,60.0,29.74,WNW,292,0.0,0.0,81,0.00,,---,0.00,VWS V14.01,2013-06-30 05:55:00,
2013-06-30 01:00:00,65.8,60.2,29.74,WNW,292,0.0,0.0,82,0.00,,---,0.00,VWS V14.01,2013-06-30 06:00:00,
2013-06-30 01:05:00,65.8,60.2,29.76,WNW,292,0.0,0.0,82,0.00,,---,0.00,VWS V14.01,2013-06-30 06:05:00,
2013-06-30 01:10:00,65.7,60.0,29.76,WNW,292,0.0,0.0,82,0.00,,---,0.00,VWS V14.01,2013-06-30 06:10:00,
2013-06-30 01:15:00,65.7,60.0,29.76,WNW,292,0.0,0.0,82,0.00,,---,0.00,VWS V14.01,2013-06-30 06:15:00,
2013-06-30 01:20:00,65.5,59.8,29.74,WNW,292,0.0,0.0,82,0.00,,---,0.00,VWS V14.01,2013-06-30 06:20:00,
2013-06-30 01:25:00,65.5,60.2,29.74,WNW,292,0.0,0.0,83,0.00,,---,0.00,VWS V14.01,2013-06-30 06:25:00,
2013-06-30 01:30:00,65.5,60.2,29.74,WNW,292,0.0,0.0,83,0.00,,---,0.00,VWS V14.01,2013-06-30 06:30:00,
2013-06-30 01:35:00,65.5,60.2,29.74,WNW,292,0.0,0.0,83,0.00,,---,0.00,VWS V14.01,2013-06-30 06:35:00,
2013-06-30 01:40:00,65.3,60.3,29.74,WNW,292,0.0,0.0,84,0.00,,---,0.00,VWS V14.01,2013-06-30 06:40:00,
2013-06-30 01:45:00,65.3,60.3,29.74,WNW,292,0.0,0.0,84,0.00,,---,0.00,VWS V14.01,2013-06-30 06:45:00,
2013-06-30 01:50:00,65.3,60.3,29.76,WNW,292,0.0,0.0,84,0.00,,---,0.00,VWS V14.01,2013-06-30 06:50:00,
2013-06-30 01:55:00,65.3,60.3,29.76,WNW,292,0.0,0.0,84,0.00,,---,0.00,VWS V14.01,2013-06-30 06:55:00,
2013-06-30 02:00:00,65.3,60.3,29.76,WNW,292,0.0,0.0,84,0.00,,---,0.00,VWS V14.01,2013-06-30 07:00:00,
2013-06-30 02:05:00,65.1,60.5,29.76,WNW,292,0.0,0.0,85,0.00,,---,0.00,VWS V14.01,2013-06-30 07:05:00,
2013-06-30 02:10:00,65.1,60.5,29.74,WNW,292,0.0,0.0,85,0.00,,---,0.00,VWS V14.01,2013-06-30 07:10:00,
2013-06-30 02:15:00,65.1,60.5,29.74,WNW,292,0.0,0.0,85,0.00,,---,0.00,VWS V14.01,2013-06-30 07:15:00,
2013-06-30 02:20:00,65.1,60.5,29.74,WNW,292,0.0,0.0,85,0.00,,---,0.00,VWS V14.01,2013-06-30 07:20:00,
2013-06-30 02:25:00,64.9,60.3,29.74,WNW,292,0.0,0.0,85,0.00,,---,0.00,VWS V14.01,2013-06-30 07:25:00,
2013-06-30 02:30:00,64.9,60.3,29.74,WNW,292,0.0,0.0,85,0.00,,---,0.00,VWS V14.01,2013-06-30 07:30:00,
2013-06-30 02:35:00,64.8,60.2,29.74,WNW,292,0.0,0.0,85,0.00,,---,0.00,VWS V14.01,2013-06-30 07:35:00,
2013-06-30 02:40:00,64.8,60.2,29.74,WNW,292,0.0,0.0,85,0.00,,---,0.00,VWS V14.01,2013-06-30 07:40:00,
2013-06-30 02:45:00,64.8,60.5,29.74,WNW,292,0.0,0.0,86,0.00,,---,0.00,VWS V14.01,2013-06-30 07:45:00,
2013-06-30 02:50:00,64.6,60.3,29.74,WNW,292,0.0,0.0,86,0.00,,---,0.00,VWS V14.01,2013-06-30 07:50:00,
2013-06-30 02:55:00,64.6,60.3,29.74,WNW,292,0.0,0.0,86,0.00,,---,0.00,VWS V14.01,2013-06-30 07:55:00,
2013-06-30 03:00:00,64.6,60.3,29.74,West,270,0.0,0.0,86,0.00,,---,0.00,VWS V14.01,2013-06-30 08:00:00,
2013-06-30 03:05:00,64.6,60.3,29.74,NE,45,0.0,0.0,86,0.00,,---,0.00,VWS V14.01,2013-06-30 08:05:00,
2013-06-30 03:10:00,64.4,60.5,29.74,NNE,22,0.0,0.0,87,0.00,,---,0.00,VWS V14.01,2013-06-30 08:10:00,
2013-06-30 03:15:00,64.4,60.5,29.74,NNE,22,0.0,0.0,87,0.00,,---,0.00,VWS V14.01,2013-06-30 08:15:00,
2013-06-30 03:20:00,64.4,60.5,29.74,NNE,22,0.0,0.0,87,0.00,,---,0.00,VWS V14.01,2013-06-30 08:20:00,
2013-06-30 03:25:00,64.4,60.5,29.74,NNE,22,0.0,0.0,87,0.00,,---,0.00,VWS V14.01,2013-06-30 08:25:00,
2013-06-30 03:30:00,64.2,60.6,29.74,NNE,22,0.0,0.0,88,0.00,,---,0.00,VWS V14.01,2013-06-30 08:30:00,
2013-06-30 03:35:00,64.2,60.6,29.74,NNE,22,0.0,0.0,88,0.00,,---,0.00,VWS V14.01,2013-06-30 08:35:00,
2013-06-30 03:40:00,64.2,60.6,29.74,NNE,22,0.0,0.0,88,0.00,,---,0.00,VWS V14.01,2013-06-30 08:40:00,
2013-06-30 03:45:00,64.2,60.6,29.74,NNE,22,0.0,0.0,88,0.00,,---,0.00,VWS V14.01,2013-06-30 08:45:00,
2013-06-30 03:50:00,64.2,60.6,29.74,NNE,22,0.0,0.0,88,0.00,,---,0.00,VWS V14.01,2013-06-30 08:50:00,
2013-06-30 03:55:00,64.0,60.4,29.74,NNE,22,0.0,0.0,88,0.00,,---,0.00,VWS V14.01,2013-06-30 08:55:00,
2013-06-30 04:00:00,64.0,60.4,29.74,NNE,22,0.0,0.0,88,0.00,,---,0.00,VWS V14.01,2013-06-30 09:00:00,
2013-06-30 04:05:00,64.0,60.4,29.74,NNE,22,0.0,0.0,88,0.00,,---,0.00,VWS V14.01,2013-06-30 09:05:00,
2013-06-30 04:10:00,64.0,60.4,29.74,NNE,22,0.0,0.0,88,0.00,,---,0.00,VWS V14.01,2013-06-30 09:10:00,
2013-06-30 04:15:00,64.0,60.4,29.74,NW,315,0.0,0.0,88,0.00,,---,0.00,VWS V14.01,2013-06-30 09:15:00,
2013-06-30 04:20:00,63.9,60.2,29.74,North,0,0.0,0.0,88,0.00,,---,0.00,VWS V14.01,2013-06-30 09:20:00,
2013-06-30 04:25:00,63.9,60.2,29.74,NNE,22,0.0,0.0,88,0.00,,---,0.00,VWS V14.01,2013-06-30 09:25:00,
2013-06-30 04:30:00,63.9,60.6,29.74,NNE,22,0.0,0.0,89,0.00,,---,0.00,VWS V14.01,2013-06-30 09:30:00,
2013-06-30 04:35:00,63.9,60.6,29.74,NNE,22,0.0,0.0,89,0.00,,---,0.00,VWS V14.01,2013-06-30 09:35:00,
2013-06-30 04:40:00,63.9,60.6,29.74,NNE,22,0.0,0.0,89,0.00,,---,0.00,VWS V14.01,2013-06-30 09:40:00,
2013-06-30 04:45:00,63.9,60.6,29.74,NNE,22,0.0,0.0,89,0.00,,---,0.00,VWS V14.01,2013-06-30 09:45:00,
2013-06-30 04:50:00,63.9,60.6,29.74,NNE,22,0.0,0.0,89,0.00,,---,0.00,VWS V14.01,2013-06-30 09:50:00,
2013-06-30 04:55:00,63.9,60.6,29.74,NNE,22,0.0,0.0,89,0.00,,---,0.00,VWS V14.01,2013-06-30 09:55:00,
2013-06-30 05:00:00,63.7,60.4,29.74,NNE,22,0.0,0.0,89,0.00,,---,0.00,VWS V14.01,2013-06-30 10:00:00,
2013-06-30 05:05:00,63.7,60.7,29.74,NNE,22,0.0,0.0,90,0.00,,---,0.00,VWS V14.01,2013-06-30 10:05:00,
2013-06-30 05:10:00,64.0,61.0,29.74,NE,45,0.0,0.0,90,0.00,,---,0.00,VWS V14.01,2013-06-30 10:10:00,
2013-06-30 05:15:00,64.2,61.2,29.74,NNW,338,0.0,0.0,90,0.00,,---,0.00,VWS V14.01,2013-06-30 10:15:00,
2013-06-30 05:20:00,64.2,61.2,29.74,NNE,22,0.0,0.0,90,0.00,,---,0.00,VWS V14.01,2013-06-30 10:20:00,
2013-06-30 05:25:00,64.4,61.4,29.74,ENE,68,0.0,0.0,90,0.00,,---,0.00,VWS V14.01,2013-06-30 10:25:00,
2013-06-30 05:30:00,64.6,61.6,29.74,East,90,0.0,0.0,90,0.00,,---,0.00,VWS V14.01,2013-06-30 10:30:00,
2013-06-30 05:35:00,64.8,62.1,29.74,ESE,112,3.8,3.8,91,0.00,,---,0.00,VWS V14.01,2013-06-30 10:35:00,
2013-06-30 05:40:00,64.9,62.2,29.74,ESE,112,1.6,1.6,91,0.00,,---,0.00,VWS V14.01,2013-06-30 10:40:00,
2013-06-30 05:45:00,64.9,62.2,29.74,ESE,112,2.5,2.7,91,0.00,,---,0.00,VWS V14.01,2013-06-30 10:45:00,
2013-06-30 05:50:00,65.1,62.4,29.74,ENE,68,1.6,3.4,91,0.00,,---,0.00,VWS V14.01,2013-06-30 10:50:00,
2013-06-30 05:55:00,65.3,62.6,29.76,NNE,22,4.3,4.3,91,0.00,,---,0.00,VWS V14.01,2013-06-30 10:55:00,
2013-06-30 06:00:00,65.3,62.6,29.76,East,90,0.0,0.0,91,0.00,,---,0.00,VWS V14.01,2013-06-30 11:00:00,
2013-06-30 06:05:00,65.5,62.8,29.76,ESE,112,4.9,4.9,91,0.00,,---,0.00,VWS V14.01,2013-06-30 11:05:00,
2013-06-30 06:10:00,65.7,63.0,29.76,ENE,68,2.7,3.4,91,0.00,,---,0.00,VWS V14.01,2013-06-30 11:10:00,
2013-06-30 06:15:00,65.7,63.0,29.76,ESE,112,0.0,0.9,91,0.00,,---,0.00,VWS V14.01,2013-06-30 11:15:00,
2013-06-30 06:20:00,65.8,63.1,29.76,NE,45,2.0,2.5,91,0.00,,---,0.00,VWS V14.01,2013-06-30 11:20:00,
2013-06-30 06:25:00,65.8,63.1,29.76,East,90,2.0,3.4,91,0.00,,---,0.00,VWS V14.01,2013-06-30 11:25:00,
2013-06-30 06:30:00,66.0,63.3,29.76,East,90,2.9,3.4,91,0.00,,---,0.00,VWS V14.01,2013-06-30 11:30:00,
2013-06-30 06:35:00,66.2,63.2,29.76,ESE,112,0.0,0.0,90,0.00,,---,0.00,VWS V14.01,2013-06-30 11:35:00,
2013-06-30 06:40:00,66.4,63.7,29.76,SE,135,0.0,0.0,91,0.00,,---,0.00,VWS V14.01,2013-06-30 11:40:00,
2013-06-30 06:45:00,66.4,63.7,29.76,ENE,68,0.0,4.5,91,0.00,,---,0.00,VWS V14.01,2013-06-30 11:45:00,
2013-06-30 06:50:00,66.6,63.5,29.76,ENE,68,2.2,3.4,90,0.00,,---,0.00,VWS V14.01,2013-06-30 11:50:00,
2013-06-30 06:55:00,66.6,63.5,29.76,NE,45,2.7,3.4,90,0.00,,---,0.00,VWS V14.01,2013-06-30 11:55:00,
2013-06-30 06:59:00,66.6,63.5,29.76,East,90,3.1,3.1,90,0.00,,---,0.00,VWS V14.01,2013-06-30 11:59:00,
2013-06-30 07:04:00,66.7,63.7,29.79,ENE,68,2.7,2.7,90,0.00,,---,0.00,VWS V14.01,2013-06-30 12:04:00,
2013-06-30 07:09:00,66.9,63.9,29.79,East,90,2.7,4.7,90,0.00,,---,0.00,VWS V14.01,2013-06-30 12:09:00,
2013-06-30 07:14:00,66.9,63.6,29.79,NNE,22,1.6,3.6,89,0.00,,---,0.00,VWS V14.01,2013-06-30 12:14:00,
2013-06-30 07:19:00,67.1,63.8,29.79,NNE,22,1.3,2.7,89,0.00,,---,0.00,VWS V14.01,2013-06-30 12:19:00,
2013-06-30 07:24:00,67.1,63.8,29.79,NE,45,0.0,0.0,89,0.00,,---,0.00,VWS V14.01,2013-06-30 12:24:00,
2013-06-30 07:29:00,67.3,63.9,29.79,ENE,68,2.7,2.7,89,0.00,,---,0.00,VWS V14.01,2013-06-30 12:29:00,
2013-06-30 07:34:00,67.3,63.9,29.79,NE,45,3.1,3.8,89,0.00,,---,0.00,VWS V14.01,2013-06-30 12:34:00,
2013-06-30 07:39:00,67.5,63.8,29.79,ESE,112,3.1,3.6,88,0.00,,---,0.00,VWS V14.01,2013-06-30 12:39:00,
2013-06-30 07:44:00,67.6,64.0,29.79,ESE,112,0.0,0.0,88,0.00,,---,0.00,VWS V14.01,2013-06-30 12:44:00,
2013-06-30 07:49:00,67.8,64.1,29.79,East,90,0.0,0.0,88,0.00,,---,0.00,VWS V14.01,2013-06-30 12:49:00,
2013-06-30 07:54:00,68.0,64.0,29.79,ESE,112,0.0,0.0,87,0.00,,---,0.00,VWS V14.01,2013-06-30 12:54:00,
2013-06-30 07:59:00,68.4,64.7,29.79,East,90,3.1,3.1,88,0.00,,---,0.00,VWS V14.01,2013-06-30 12:59:00,
2013-06-30 08:04:00,68.9,65.2,29.79,East,90,0.0,0.9,88,0.00,,---,0.00,VWS V14.01,2013-06-30 13:04:00,
2013-06-30 08:09:00,69.3,65.6,29.79,SW,225,0.0,0.0,88,0.00,,---,0.00,VWS V14.01,2013-06-30 13:09:00,
2013-06-30 08:14:00,69.6,65.6,29.79,ESE,112,0.0,0.0,87,0.00,,---,0.00,VWS V14.01,2013-06-30 13:14:00,
2013-06-30 08:19:00,70.0,65.3,29.79,ENE,68,0.0,0.0,85,0.00,,---,0.00,VWS V14.01,2013-06-30 13:19:00,
2013-06-30 08:24:00,70.0,64.6,29.79,ESE,112,0.0,0.0,83,0.00,,---,0.00,VWS V14.01,2013-06-30 13:24:00,
2013-06-30 08:29:00,70.5,65.5,29.79,ESE,112,0.0,0.0,84,0.00,,---,0.00,VWS V14.01,2013-06-30 13:29:00,
2013-06-30 08:34:00,71.1,65.3,29.79,ESE,112,0.0,0.0,82,0.00,,---,0.00,VWS V14.01,2013-06-30 13:34:00,
2013-06-30 08:39:00,71.2,65.1,29.79,East,90,0.0,0.0,81,0.00,,---,0.00,VWS V14.01,2013-06-30 13:39:00,
2013-06-30 08:44:00,71.6,65.1,29.79,NNE,22,2.2,3.1,80,0.00,,---,0.00,VWS V14.01,2013-06-30 13:44:00,
2013-06-30 08:49:00,72.1,65.3,29.79,SW,225,0.0,0.9,79,0.00,,---,0.00,VWS V14.01,2013-06-30 13:49:00,
2013-06-30 08:54:00,72.3,65.1,29.79,SW,225,0.0,0.0,78,0.00,,---,0.00,VWS V14.01,2013-06-30 13:54:00,
2013-06-30 08:59:00,72.7,65.4,29.79,East,90,3.8,5.4,78,0.00,,---,0.00,VWS V14.01,2013-06-30 13:59:00,
2013-06-30 09:04:00,73.0,65.4,29.79,NE,45,1.3,3.6,77,0.00,,---,0.00,VWS V14.01,2013-06-30 14:04:00,
2013-06-30 09:09:00,73.4,65.4,29.79,WSW,248,1.1,1.1,76,0.00,,---,0.00,VWS V14.01,2013-06-30 14:09:00,
2013-06-30 09:14:00,73.2,64.1,29.79,East,90,0.0,2.5,73,0.00,,---,0.00,VWS V14.01,2013-06-30 14:14:00,
2013-06-30 09:19:00,73.2,64.4,29.82,East,90,3.4,3.6,74,0.00,,---,0.00,VWS V14.01,2013-06-30 14:19:00,
2013-06-30 09:24:00,73.0,63.9,29.82,East,90,0.0,1.6,73,0.00,,---,0.00,VWS V14.01,2013-06-30 14:24:00,
2013-06-30 09:29:00,73.2,64.1,29.82,ESE,112,0.0,0.0,73,0.00,,---,0.00,VWS V14.01,2013-06-30 14:29:00,
2013-06-30 09:34:00,73.6,64.4,29.79,ESE,112,0.0,0.0,73,0.00,,---,0.00,VWS V14.01,2013-06-30 14:34:00,
2013-06-30 09:39:00,73.6,64.4,29.79,WSW,248,0.0,1.3,73,0.00,,---,0.00,VWS V14.01,2013-06-30 14:39:00,
2013-06-30 09:44:00,74.7,65.4,29.79,East,90,4.3,4.3,73,0.00,,---,0.00,VWS V14.01,2013-06-30 14:44:00,
2013-06-30 09:49:00,75.4,64.9,29.79,WSW,248,2.5,2.5,70,0.00,,---,0.00,VWS V14.01,2013-06-30 14:49:00,
2013-06-30 09:54:00,75.2,63.9,29.82,NNE,22,3.1,3.1,68,0.00,,---,0.00,VWS V14.01,2013-06-30 14:54:00,
2013-06-30 09:59:00,74.7,63.4,29.82,ESE,112,3.8,3.8,68,0.00,,---,0.00,VWS V14.01,2013-06-30 14:59:00,
2013-06-30 10:04:00,74.5,63.2,29.82,East,90,3.4,5.4,68,0.00,,---,0.00,VWS V14.01,2013-06-30 15:04:00,
2013-06-30 10:09:00,74.7,63.4,29.82,East,90,0.0,2.0,68,0.00,,---,0.00,VWS V14.01,2013-06-30 15:09:00,
2013-06-30 10:14:00,74.7,63.4,29.82,ESE,112,2.5,4.9,68,0.00,,---,0.00,VWS V14.01,2013-06-30 15:14:00,
2013-06-30 10:19:00,74.7,63.4,29.82,ENE,68,3.1,3.8,68,0.00,,---,0.00,VWS V14.01,2013-06-30 15:19:00,
2013-06-30 10:24:00,74.3,63.1,29.82,ESE,112,2.0,2.9,68,0.00,,---,0.00,VWS V14.01,2013-06-30 15:24:00,
2013-06-30 10:29:00,74.5,63.7,29.82,ESE,112,3.6,5.4,69,0.00,,---,0.00,VWS V14.01,2013-06-30 15:29:00,
2013-06-30 10:34:00,75.0,63.8,29.82,East,90,4.0,6.3,68,0.00,,---,0.00,VWS V14.01,2013-06-30 15:34:00,
2013-06-30 10:39:00,76.5,65.1,29.82,NE,45,6.5,6.5,68,0.00,,---,0.00,VWS V14.01,2013-06-30 15:39:00,
2013-06-30 10:44:00,77.4,66.0,29.82,ESE,112,1.3,2.7,68,0.00,,---,0.00,VWS V14.01,2013-06-30 15:44:00,
2013-06-30 10:49:00,79.5,68.5,29.82,NNE,22,0.0,2.5,69,0.00,,---,0.00,VWS V14.01,2013-06-30 15:49:00,
2013-06-30 10:54:00,81.9,68.0,29.82,East,90,1.1,5.6,63,0.00,,---,0.00,VWS V14.01,2013-06-30 15:54:00,
2013-06-30 10:59:00,82.0,67.8,29.82,WSW,248,0.0,2.2,62,0.00,,---,0.00,VWS V14.01,2013-06-30 15:59:00,
2013-06-30 11:04:00,83.1,68.8,29.82,SW,225,0.0,0.0,62,0.00,,---,0.00,VWS V14.01,2013-06-30 16:04:00,
2013-06-30 11:09:00,83.1,65.8,29.82,NE,45,5.8,5.8,56,0.00,,---,0.00,VWS V14.01,2013-06-30 16:09:00,
2013-06-30 11:14:00,82.0,63.8,29.82,East,90,4.0,6.0,54,0.00,,---,0.00,VWS V14.01,2013-06-30 16:14:00,
2013-06-30 11:19:00,80.8,61.5,29.82,SE,135,4.7,5.6,52,0.00,,---,0.00,VWS V14.01,2013-06-30 16:19:00,
2013-06-30 11:24:00,78.8,61.3,29.82,ESE,112,2.5,3.8,55,0.00,,---,0.00,VWS V14.01,2013-06-30 16:24:00,
2013-06-30 11:29:00,77.9,61.5,29.82,East,90,3.6,5.8,57,0.00,,---,0.00,VWS V14.01,2013-06-30 16:29:00,
2013-06-30 11:34:00,76.8,61.4,29.82,ENE,68,2.7,6.0,59,0.00,,---,0.00,VWS V14.01,2013-06-30 16:34:00,
2013-06-30 11:39:00,76.6,62.7,29.82,ESE,112,5.6,5.6,62,0.00,,---,0.00,VWS V14.01,2013-06-30 16:39:00,
2013-06-30 11:44:00,76.6,63.6,29.82,NE,45,6.3,6.3,64,0.00,,---,0.00,VWS V14.01,2013-06-30 16:44:00,
2013-06-30 11:49:00,79.2,66.4,29.82,NNE,22,3.8,5.4,65,0.00,,---,0.00,VWS V14.01,2013-06-30 16:49:00,
2013-06-30 11:54:00,77.7,63.7,29.82,SSE,158,2.9,2.9,62,0.00,,---,0.00,VWS V14.01,2013-06-30 16:54:00,
2013-06-30 11:59:00,77.9,64.3,29.82,ESE,112,3.6,3.6,63,0.00,,---,0.00,VWS V14.01,2013-06-30 16:59:00,
2013-06-30 12:04:00,77.5,63.5,29.82,SE,135,2.9,6.3,62,0.00,,---,0.00,VWS V14.01,2013-06-30 17:04:00,
2013-06-30 12:09:00,77.5,63.0,29.82,East,90,4.5,4.5,61,0.00,,---,0.00,VWS V14.01,2013-06-30 17:09:00,
2013-06-30 12:14:00,77.4,63.8,29.82,ESE,112,3.1,5.8,63,0.00,,---,0.00,VWS V14.01,2013-06-30 17:14:00,
2013-06-30 12:19:00,77.7,63.2,29.82,ENE,68,4.9,6.5,61,0.00,,---,0.00,VWS V14.01,2013-06-30 17:19:00,
2013-06-30 12:24:00,77.5,62.6,29.82,East,90,6.9,6.9,60,0.00,,---,0.00,VWS V14.01,2013-06-30 17:24:00,
2013-06-30 12:29:00,76.8,61.4,29.82,WSW,248,3.4,3.4,59,0.00,,---,0.00,VWS V14.01,2013-06-30 17:29:00,
2013-06-30 12:34:00,77.4,62.9,29.82,ESE,112,4.0,7.4,61,0.00,,---,0.00,VWS V14.01,2013-06-30 17:34:00,
2013-06-30 12:39:00,78.3,64.2,29.82,ENE,68,4.7,4.7,62,0.00,,---,0.00,VWS V14.01,2013-06-30 17:39:00,
2013-06-30 12:44:00,79.3,64.7,29.82,NNE,22,4.3,4.3,61,0.00,,---,0.00,VWS V14.01,2013-06-30 17:44:00,
2013-06-30 12:49:00,79.0,63.4,29.82,NNE,22,5.6,5.6,59,0.00,,---,0.00,VWS V14.01,2013-06-30 17:49:00,
2013-06-30 12:54:00,79.3,64.3,29.82,ENE,68,2.5,4.3,60,0.00,,---,0.00,VWS V14.01,2013-06-30 17:54:00,
2013-06-30 12:59:00,79.7,64.6,29.82,East,90,2.5,2.5,60,0.00,,---,0.00,VWS V14.01,2013-06-30 17:59:00,
2013-06-30 13:04:00,80.6,63.5,29.82,ESE,112,0.0,1.3,56,0.00,,---,0.00,VWS V14.01,2013-06-30 18:04:00,
2013-06-30 13:09:00,80.6,64.0,29.82,NNE,22,4.7,5.6,57,0.00,,---,0.00,VWS V14.01,2013-06-30 18:09:00,
2013-06-30 13:14:00,81.1,64.0,29.82,ESE,112,4.7,4.7,56,0.00,,---,0.00,VWS V14.01,2013-06-30 18:14:00,
2013-06-30 13:19:00,81.5,63.8,29.82,NNE,22,2.9,2.9,55,0.00,,---,0.00,VWS V14.01,2013-06-30 18:19:00,
2013-06-30 13:24:00,81.1,62.4,29.82,NNW,338,0.0,0.9,53,0.00,,---,0.00,VWS V14.01,2013-06-30 18:24:00,
2013-06-30 13:29:00,82.2,62.9,29.82,WNW,292,2.0,2.0,52,0.00,,---,0.00,VWS V14.01,2013-06-30 18:29:00,
2013-06-30 13:34:00,82.8,63.9,29.82,ENE,68,3.4,3.4,53,0.00,,---,0.00,VWS V14.01,2013-06-30 18:34:00,
2013-06-30 13:39:00,82.8,63.4,29.82,East,90,3.4,4.7,52,0.00,,---,0.00,VWS V14.01,2013-06-30 18:39:00,
2013-06-30 13:44:00,82.9,63.5,29.82,ESE,112,4.3,4.3,52,0.00,,---,0.00,VWS V14.01,2013-06-30 18:44:00,
2013-06-30 13:49:00,83.3,64.4,29.82,East,90,3.1,3.1,53,0.00,,---,0.00,VWS V14.01,2013-06-30 18:49:00,
2013-06-30 13:54:00,84.7,64.1,29.82,NNW,338,4.3,5.6,50,0.00,,---,0.00,VWS V14.01,2013-06-30 18:54:00,
2013-06-30 13:59:00,84.9,63.7,29.82,ENE,68,1.1,2.7,49,0.00,,---,0.00,VWS V14.01,2013-06-30 18:59:00,
2013-06-30 14:04:00,86.2,63.6,29.82,East,90,2.7,6.0,47,0.00,,---,0.00,VWS V14.01,2013-06-30 19:04:00,
2013-06-30 14:09:00,86.9,64.3,29.82,ESE,112,2.7,2.7,47,0.00,,---,0.00,VWS V14.01,2013-06-30 19:09:00,
2013-06-30 14:14:00,85.3,61.6,29.82,ESE,112,2.0,2.2,45,0.00,,---,0.00,VWS V14.01,2013-06-30 19:14:00,
2013-06-30 14:19:00,82.9,61.8,29.82,WSW,248,0.0,1.6,49,0.00,,---,0.00,VWS V14.01,2013-06-30 19:19:00,
2013-06-30 14:24:00,80.4,60.7,29.82,WNW,292,0.0,0.0,51,0.00,,---,0.00,VWS V14.01,2013-06-30 19:24:00,
2013-06-30 14:29:00,79.0,62.5,29.82,WSW,248,0.0,0.0,57,0.00,,---,0.00,VWS V14.01,2013-06-30 19:29:00,
2013-06-30 14:34:00,78.8,62.8,29.82,WSW,248,0.0,0.0,58,0.00,,---,0.00,VWS V14.01,2013-06-30 19:34:00,
2013-06-30 14:39:00,78.8,63.8,29.82,WSW,248,0.0,0.0,60,0.00,,---,0.00,VWS V14.01,2013-06-30 19:39:00,
2013-06-30 14:44:00,78.1,64.0,29.82,WSW,248,0.0,0.0,62,0.00,,---,0.00,VWS V14.01,2013-06-30 19:44:00,
2013-06-30 14:49:00,77.7,64.6,29.82,WSW,248,0.0,0.0,64,0.00,,---,0.00,VWS V14.01,2013-06-30 19:49:00,
2013-06-30 14:54:00,77.2,64.5,29.82,WSW,248,0.0,0.0,65,0.00,,---,0.00,VWS V14.01,2013-06-30 19:54:00,
2013-06-30 14:58:00,76.5,63.8,29.82,WSW,248,0.0,0.0,65,0.00,,---,0.00,VWS V14.01,2013-06-30 19:58:00,
2013-06-30 15:03:00,75.7,63.6,29.82,WSW,248,0.0,0.0,66,0.00,,---,0.00,VWS V14.01,2013-06-30 20:03:00,
2013-06-30 15:08:00,75.6,63.8,29.82,WSW,248,0.0,0.0,67,0.00,,---,0.00,VWS V14.01,2013-06-30 20:08:00,
2013-06-30 15:13:00,74.8,64.0,29.82,WSW,248,0.0,0.0,69,0.00,,---,0.00,VWS V14.01,2013-06-30 20:13:00,
2013-06-30 15:18:00,74.3,63.5,29.82,WNW,292,0.0,0.0,69,0.00,,---,0.00,VWS V14.01,2013-06-30 20:18:00,
2013-06-30 15:23:00,74.3,63.9,29.82,WNW,292,0.0,0.0,70,0.00,,---,0.00,VWS V14.01,2013-06-30 20:23:00,
2013-06-30 15:28:00,74.3,64.7,29.82,WNW,292,0.0,0.0,72,0.04,,---,0.04,VWS V14.01,2013-06-30 20:28:00,
2013-06-30 15:33:00,73.8,63.8,29.82,NW,315,1.1,1.1,71,0.04,,---,0.04,VWS V14.01,2013-06-30 20:33:00,
2013-06-30 15:38:00,73.8,64.2,29.82,NNW,338,0.0,0.0,72,0.04,,---,0.04,VWS V14.01,2013-06-30 20:38:00,
2013-06-30 15:43:00,73.8,64.6,29.82,WNW,292,0.0,0.0,73,0.04,,---,0.04,VWS V14.01,2013-06-30 20:43:00,
2013-06-30 15:48:00,73.8,64.6,29.82,West,270,0.0,0.0,73,0.04,,---,0.04,VWS V14.01,2013-06-30 20:48:00,
2013-06-30 15:53:00,73.6,64.8,29.82,West,270,0.0,0.0,74,0.04,,---,0.04,VWS V14.01,2013-06-30 20:53:00,
2013-06-30 15:58:00,73.6,64.8,29.82,West,270,0.0,0.0,74,0.04,,---,0.04,VWS V14.01,2013-06-30 20:58:00,
2013-06-30 16:03:00,73.8,65.3,29.82,West,270,0.0,0.0,75,0.04,,---,0.04,VWS V14.01,2013-06-30 21:03:00,
2013-06-30 16:08:00,73.8,65.3,29.82,West,270,0.0,0.0,75,0.04,,---,0.04,VWS V14.01,2013-06-30 21:08:00,
2013-06-30 16:13:00,73.9,65.5,29.82,West,270,0.0,0.0,75,0.04,,---,0.04,VWS V14.01,2013-06-30 21:13:00,
2013-06-30 16:18:00,74.1,66.1,29.82,WSW,248,3.4,3.6,76,0.04,,---,0.04,VWS V14.01,2013-06-30 21:18:00,
2013-06-30 16:23:00,74.1,66.5,29.82,WNW,292,0.0,0.0,77,0.04,,---,0.04,VWS V14.01,2013-06-30 21:23:00,
2013-06-30 16:28:00,74.1,65.7,29.82,SW,225,0.0,0.0,75,0.00,,---,0.04,VWS V14.01,2013-06-30 21:28:00,
2013-06-30 16:33:00,74.3,66.6,29.82,West,270,0.0,0.0,77,0.00,,---,0.04,VWS V14.01,2013-06-30 21:33:00,
2013-06-30 16:38:00,74.5,66.4,29.82,West,270,2.5,2.5,76,0.00,,---,0.04,VWS V14.01,2013-06-30 21:38:00,
2013-06-30 16:43:00,74.3,66.2,29.82,West,270,1.3,2.7,76,0.00,,---,0.04,VWS V14.01,2013-06-30 21:43:00,
2013-06-30 16:48:00,74.1,66.1,29.82,West,270,0.0,0.0,76,0.00,,---,0.04,VWS V14.01,2013-06-30 21:48:00,
2013-06-30 16:53:00,73.9,65.5,29.82,SW,225,0.0,1.6,75,0.00,,---,0.04,VWS V14.01,2013-06-30 21:53:00,
2013-06-30 16:58:00,73.6,65.2,29.82,West,270,0.0,0.0,75,0.00,,---,0.04,VWS V14.01,2013-06-30 21:58:00,
2013-06-30 17:03:00,73.0,65.4,29.82,WNW,292,0.0,0.0,77,0.00,,---,0.04,VWS V14.01,2013-06-30 22:03:00,
2013-06-30 17:08:00,72.7,65.4,29.82,NW,315,2.5,4.3,78,0.00,,---,0.04,VWS V14.01,2013-06-30 22:08:00,
2013-06-30 17:13:00,72.1,65.3,29.82,WNW,292,1.3,4.0,79,0.12,,---,0.16,VWS V14.01,2013-06-30 22:13:00,
2013-06-30 17:18:00,71.8,65.3,29.82,SW,225,1.3,1.6,80,0.12,,---,0.16,VWS V14.01,2013-06-30 22:18:00,
2013-06-30 17:23:00,71.8,65.3,29.82,ESE,112,2.7,2.7,80,0.12,,---,0.16,VWS V14.01,2013-06-30 22:23:00,
2013-06-30 17:28:00,71.1,64.6,29.82,ESE,112,6.5,6.5,80,0.12,,---,0.16,VWS V14.01,2013-06-30 22:28:00,
2013-06-30 17:33:00,70.5,63.3,29.82,ESE,112,5.6,7.8,78,0.12,,---,0.16,VWS V14.01,2013-06-30 22:33:00,
2013-06-30 17:38:00,70.3,63.5,29.82,East,90,6.0,6.0,79,0.12,,---,0.16,VWS V14.01,2013-06-30 22:38:00,
2013-06-30 17:43:00,70.2,63.3,29.82,NE,45,3.4,5.4,79,0.12,,---,0.16,VWS V14.01,2013-06-30 22:43:00,
2013-06-30 17:48:00,70.0,63.2,29.82,ESE,112,1.6,4.7,79,0.12,,---,0.16,VWS V14.01,2013-06-30 22:48:00,
2013-06-30 17:53:00,69.8,63.4,29.85,West,270,0.0,0.0,80,0.12,,---,0.16,VWS V14.01,2013-06-30 22:53:00,
2013-06-30 17:58:00,69.8,63.7,29.85,WSW,248,0.0,0.0,81,0.12,,---,0.16,VWS V14.01,2013-06-30 22:58:00,
2013-06-30 18:03:00,69.8,64.1,29.85,WSW,248,0.0,0.0,82,0.12,,---,0.16,VWS V14.01,2013-06-30 23:03:00,
2013-06-30 18:08:00,70.0,64.2,29.85,West,270,0.0,0.0,82,0.12,,---,0.16,VWS V14.01,2013-06-30 23:08:00,
2013-06-30 18:13:00,70.0,64.2,29.85,WSW,248,0.0,0.0,82,0.12,,---,0.16,VWS V14.01,2013-06-30 23:13:00,
2013-06-30 18:18:00,70.2,64.4,29.85,WSW,248,0.0,0.0,82,0.00,,---,0.16,VWS V14.01,2013-06-30 23:18:00,
2013-06-30 18:23:00,70.2,64.4,29.85,WSW,248,0.0,0.0,82,0.00,,---,0.16,VWS V14.01,2013-06-30 23:23:00,
2013-06-30 18:28:00,70.3,64.6,29.85,South,180,0.0,0.0,82,0.00,,---,0.16,VWS V14.01,2013-06-30 23:28:00,
2013-06-30 18:33:00,70.3,64.6,29.85,South,180,0.0,0.0,82,0.00,,---,0.16,VWS V14.01,2013-06-30 23:33:00,
2013-06-30 18:38:00,70.3,64.6,29.82,ESE,112,0.0,0.0,82,0.00,,---,0.16,VWS V14.01,2013-06-30 23:38:00,
2013-06-30 18:43:00,70.3,64.6,29.82,ESE,112,0.0,0.0,82,0.00,,---,0.16,VWS V14.01,2013-06-30 23:43:00,
2013-06-30 18:48:00,70.5,65.1,29.82,ESE,112,0.0,0.0,83,0.00,,---,0.16,VWS V14.01,2013-06-30 23:48:00,
2013-06-30 18:53:00,70.7,65.3,29.82,South,180,0.0,0.0,83,0.00,,---,0.16,VWS V14.01,2013-06-30 23:53:00,
2013-06-30 18:58:00,70.7,65.3,29.82,SSE,158,0.0,0.0,83,0.00,,---,0.16,VWS V14.01,2013-06-30 23:58:00,
2013-06-30 19:03:00,70.7,65.3,29.82,SE,135,0.0,0.0,83,0.00,,---,0.16,VWS V14.01,2013-07-01 00:03:00,
2013-06-30 19:08:00,70.9,65.8,29.82,South,180,0.0,0.0,84,0.00,,---,0.16,VWS V14.01,2013-07-01 00:08:00,
2013-06-30 19:13:00,70.9,65.5,29.82,ESE,112,0.0,0.0,83,0.00,,---,0.16,VWS V14.01,2013-07-01 00:13:00,
2013-06-30 19:18:00,70.9,65.5,29.82,NW,315,0.0,0.0,83,0.00,,---,0.16,VWS V14.01,2013-07-01 00:18:00,
2013-06-30 19:23:00,70.9,65.1,29.82,NE,45,0.0,0.0,82,0.00,,---,0.16,VWS V14.01,2013-07-01 00:23:00,
2013-06-30 19:28:00,71.1,65.3,29.82,NE,45,0.0,0.0,82,0.00,,---,0.16,VWS V14.01,2013-07-01 00:28:00,
2013-06-30 19:33:00,71.1,65.6,29.82,ENE,68,0.0,0.0,83,0.00,,---,0.16,VWS V14.01,2013-07-01 00:33:00,
2013-06-30 19:38:00,71.1,66.0,29.82,East,90,0.0,0.0,84,0.00,,---,0.16,VWS V14.01,2013-07-01 00:38:00,
2013-06-30 19:43:00,71.1,65.6,29.82,ESE,112,0.0,0.0,83,0.00,,---,0.16,VWS V14.01,2013-07-01 00:43:00,
2013-06-30 19:48:00,70.9,65.1,29.82,ESE,112,3.8,3.8,82,0.00,,---,0.16,VWS V14.01,2013-07-01 00:48:00,
2013-06-30 19:53:00,70.7,64.6,29.85,ESE,112,2.2,2.2,81,0.00,,---,0.16,VWS V14.01,2013-07-01 00:53:00,
2013-06-30 19:58:00,70.5,64.4,29.85,ENE,68,5.6,5.6,81,0.00,,---,0.16,VWS V14.01,2013-07-01 00:58:00,
2013-06-30 20:03:00,70.3,64.2,29.85,ENE,68,4.3,5.6,81,0.00,,---,0.16,VWS V14.01,2013-07-01 01:03:00,
2013-06-30 20:08:00,70.2,64.1,29.85,SE,135,7.2,7.2,81,0.00,,---,0.16,VWS V14.01,2013-07-01 01:08:00,
2013-06-30 20:13:00,70.0,63.9,29.85,ESE,112,2.5,5.6,81,0.00,,---,0.16,VWS V14.01,2013-07-01 01:13:00,
2013-06-30 20:18:00,69.8,63.7,29.85,East,90,0.0,0.0,81,0.00,,---,0.16,VWS V14.01,2013-07-01 01:18:00,
2013-06-30 20:23:00,69.6,63.9,29.85,East,90,0.0,1.1,82,0.00,,---,0.16,VWS V14.01,2013-07-01 01:23:00,
2013-06-30 20:28:00,69.4,63.7,29.85,ENE,68,3.1,3.4,82,0.00,,---,0.16,VWS V14.01,2013-07-01 01:28:00,
2013-06-30 20:33:00,69.3,63.5,29.85,East,90,3.4,4.9,82,0.00,,---,0.16,VWS V14.01,2013-07-01 01:33:00,
2013-06-30 20:38:00,69.1,63.4,29.85,ESE,112,1.3,2.9,82,0.00,,---,0.16,VWS V14.01,2013-07-01 01:38:00,
2013-06-30 20:43:00,69.1,63.4,29.85,ESE,112,0.9,0.9,82,0.00,,---,0.16,VWS V14.01,2013-07-01 01:43:00,
2013-06-30 20:48:00,68.9,63.2,29.85,East,90,1.6,2.7,82,0.00,,---,0.16,VWS V14.01,2013-07-01 01:48:00,
2013-06-30 20:53:00,68.7,63.0,29.85,ESE,112,5.4,5.4,82,0.00,,---,0.16,VWS V14.01,2013-07-01 01:53:00,
2013-06-30 20:58:00,68.7,63.0,29.85,ESE,112,3.1,3.1,82,0.00,,---,0.16,VWS V14.01,2013-07-01 01:58:00,
2013-06-30 21:03:00,68.5,63.2,29.85,WSW,248,0.0,0.0,83,0.00,,---,0.16,VWS V14.01,2013-07-01 02:03:00,
2013-06-30 21:08:00,68.5,63.2,29.85,ENE,68,0.0,0.0,83,0.00,,---,0.16,VWS V14.01,2013-07-01 02:08:00,
2013-06-30 21:13:00,68.4,63.3,29.85,ENE,68,0.0,0.0,84,0.00,,---,0.16,VWS V14.01,2013-07-01 02:13:00,
2013-06-30 21:18:00,68.4,63.3,29.85,NE,45,0.0,3.1,84,0.00,,---,0.16,VWS V14.01,2013-07-01 02:18:00,
2013-06-30 21:23:00,68.2,63.5,29.85,ENE,68,0.0,0.0,85,0.00,,---,0.16,VWS V14.01,2013-07-01 02:23:00,
2013-06-30 21:28:00,68.2,63.5,29.85,ESE,112,0.0,0.0,85,0.00,,---,0.16,VWS V14.01,2013-07-01 02:28:00,
2013-06-30 21:33:00,68.0,63.3,29.85,ENE,68,1.1,1.1,85,0.00,,---,0.16,VWS V14.01,2013-07-01 02:33:00,
2013-06-30 21:38:00,68.0,63.3,29.85,NNE,22,1.3,2.2,85,0.00,,---,0.16,VWS V14.01,2013-07-01 02:38:00,
2013-06-30 21:43:00,68.0,63.7,29.85,NNE,22,0.0,0.0,86,0.00,,---,0.16,VWS V14.01,2013-07-01 02:43:00,
2013-06-30 21:48:00,67.8,63.5,29.85,ENE,68,0.0,0.0,86,0.00,,---,0.16,VWS V14.01,2013-07-01 02:48:00,
2013-06-30 21:53:00,67.8,63.8,29.85,NE,45,2.0,2.7,87,0.00,,---,0.16,VWS V14.01,2013-07-01 02:53:00,
2013-06-30 21:58:00,67.8,63.8,29.85,ESE,112,0.0,1.6,87,0.00,,---,0.16,VWS V14.01,2013-07-01 02:58:00,
2013-06-30 22:03:00,67.8,63.8,29.85,ESE,112,0.0,3.8,87,0.00,,---,0.16,VWS V14.01,2013-07-01 03:03:00,
2013-06-30 22:08:00,67.8,63.8,29.85,NNW,338,0.0,0.0,87,0.00,,---,0.16,VWS V14.01,2013-07-01 03:08:00,
2013-06-30 22:13:00,67.8,63.8,29.85,NNE,22,0.0,0.0,87,0.00,,---,0.16,VWS V14.01,2013-07-01 03:13:00,
2013-06-30 22:18:00,67.8,64.1,29.85,NNE,22,0.0,0.0,88,0.00,,---,0.16,VWS V14.01,2013-07-01 03:18:00,
2013-06-30 22:23:00,67.8,64.1,29.85,NNE,22,0.0,0.0,88,0.00,,---,0.16,VWS V14.01,2013-07-01 03:23:00,
2013-06-30 22:28:00,67.6,64.0,29.85,ESE,112,0.0,0.0,88,0.00,,---,0.16,VWS V14.01,2013-07-01 03:28:00,
2013-06-30 22:33:00,67.6,64.0,29.85,ENE,68,0.0,0.0,88,0.00,,---,0.16,VWS V14.01,2013-07-01 03:33:00,
2013-06-30 22:38:00,67.6,64.0,29.88,ENE,68,0.0,0.0,88,0.00,,---,0.16,VWS V14.01,2013-07-01 03:38:00,
2013-06-30 22:42:00,67.6,64.3,29.88,ENE,68,0.0,0.0,89,0.00,,---,0.16,VWS V14.01,2013-07-01 03:42:00,
2013-06-30 22:47:00,67.5,64.1,29.88,ENE,68,0.0,0.0,89,0.00,,---,0.16,VWS V14.01,2013-07-01 03:47:00,
2013-06-30 22:52:00,67.5,64.1,29.88,ENE,68,0.0,0.0,89,0.00,,---,0.16,VWS V14.01,2013-07-01 03:52:00,
2013-06-30 22:57:00,67.5,64.1,29.88,ENE,68,0.0,0.0,89,0.00,,---,0.16,VWS V14.01,2013-07-01 03:57:00,
2013-06-30 23:01:00,67.5,64.1,29.88,ENE,68,0.0,0.0,89,0.00,,---,0.16,VWS V14.01,2013-07-01 04:01:00,
2013-06-30 23:06:00,67.5,64.4,29.85,ENE,68,0.0,0.0,90,0.00,,---,0.16,VWS V14.01,2013-07-01 04:06:00,
2013-06-30 23:11:00,67.5,64.4,29.85,ENE,68,0.0,0.0,90,0.00,,---,0.16,VWS V14.01,2013-07-01 04:11:00,
2013-06-30 23:16:00,67.5,64.4,29.85,ENE,68,0.0,0.0,90,0.00,,---,0.16,VWS V14.01,2013-07-01 04:16:00,
2013-06-30 23:21:00,67.5,64.4,29.85,ENE,68,0.0,0.0,90,0.00,,---,0.16,VWS V14.01,2013-07-01 04:21:00,
2013-06-30 23:26:00,67.5,64.4,29.85,ENE,68,0.0,0.0,90,0.00,,---,0.16,VWS V14.01,2013-07-01 04:26:00,
2013-06-30 23:31:00,67.6,64.6,29.85,ENE,68,0.0,0.0,90,0.00,,---,0.16,VWS V14.01,2013-07-01 04:31:00,
2013-06-30 23:36:00,67.5,64.8,29.85,ENE,68,0.0,0.0,91,0.00,,---,0.16,VWS V14.01,2013-07-01 04:36:00,
2013-06-30 23:41:00,67.6,64.9,29.85,ENE,68,0.0,0.0,91,0.00,,---,0.16,VWS V14.01,2013-07-01 04:41:00,
2013-06-30 23:46:00,67.6,64.9,29.85,ENE,68,0.0,0.0,91,0.00,,---,0.16,VWS V14.01,2013-07-01 04:46:00,
2013-06-30 23:51:00,67.6,64.9,29.85,ENE,68,0.0,0.0,91,0.00,,---,0.16,VWS V14.01,2013-07-01 04:51:00,
2013-06-30 23:56:00,67.6,64.9,29.85,ENE,68,0.0,0.0,91,0.00,,---,0.16,VWS V14.01,2013-07-01 04:56:00,